Time;durP1;ratioP1;P1;durP2;ratioP2;P2;SDS_P1;SDS_P2;PMS_P1;PMS_P2;Temp;Humidity;BMP_temperature;BMP_pressure;BME280_temperature;BME280_humidity;BME280_pressure;Samples;Min_cycle;Max_cycle;Signal;HPM_P1;HPM_P2
2021/09/28 00:01:31;;;;;;;16.85;12.63;;;486.60;2380.80;;;;;;5094392;28;20073;-69
2021/09/28 00:03:57;;;;;;;19.70;13.15;;;486.60;2380.80;;;;;;5094134;28;20032;-69
2021/09/28 00:06:23;;;;;;;17.08;12.85;;;486.50;2380.80;;;;;;5094038;28;20111;-75
2021/09/28 00:08:48;;;;;;;17.00;13.18;;;486.50;2380.80;;;;;;5094010;28;20347;-70
2021/09/28 00:11:14;;;;;;;16.98;13.35;;;486.40;2380.80;;;;;;5093759;28;20059;-74
2021/09/28 00:13:40;;;;;;;18.67;13.52;;;461.70;2380.80;;;;;;5093278;28;20081;-69
2021/09/28 00:16:06;;;;;;;18.45;13.13;;;461.70;2380.80;;;;;;5093822;28;20028;-70
2021/09/28 00:18:32;;;;;;;18.48;14.10;;;461.70;2380.80;;;;;;5094025;28;20039;-75
2021/09/28 00:20:58;;;;;;;19.23;13.30;;;461.70;2380.80;;;;;;5093884;28;20035;-73
2021/09/28 00:23:24;;;;;;;20.15;13.90;;;461.70;2380.80;;;;;;5093744;28;20123;-76
2021/09/28 00:25:49;;;;;;;22.50;14.57;;;461.70;2380.80;;;;;;5093760;28;20063;-71
2021/09/28 00:28:18;;;;;;;21.83;15.70;;;461.60;2380.80;;;;;;5093562;28;20069;-74
2021/09/28 00:30:44;;;;;;;24.80;16.25;;;461.50;2380.80;;;;;;5093831;28;20028;-73
2021/09/28 00:33:11;;;;;;;23.35;16.80;;;461.50;2380.80;;;;;;5093785;28;20031;-73
2021/09/28 00:35:37;;;;;;;21.67;16.48;;;461.40;2380.80;;;;;;5093461;28;20028;-73
2021/09/28 00:38:04;;;;;;;23.15;16.23;;;461.40;2380.80;;;;;;5074971;28;20058;-72
2021/09/28 00:40:30;;;;;;;25.20;17.35;;;461.30;2380.80;;;;;;5093761;28;20067;-72
2021/09/28 00:42:57;;;;;;;25.35;16.73;;;461.30;2380.80;;;;;;5093266;28;20028;-72
2021/09/28 00:45:23;;;;;;;23.48;17.02;;;461.20;2380.80;;;;;;5093338;28;20024;-72
2021/09/28 00:47:49;;;;;;;24.23;17.50;;;461.10;2380.80;;;;;;5093427;28;20035;-74
2021/09/28 00:50:15;;;;;;;24.58;18.13;;;461.10;2380.80;;;;;;5093459;28;20404;-69
2021/09/28 00:52:41;;;;;;;24.40;17.67;;;461.10;2380.80;;;;;;5093622;28;20058;-68
2021/09/28 00:55:07;;;;;;;25.58;18.08;;;461.10;2380.80;;;;;;5093378;28;20060;-69
2021/09/28 00:57:34;;;;;;;26.83;18.35;;;461.00;2380.80;;;;;;5093133;28;20024;-74
2021/09/28 01:00:02;;;;;;;24.83;18.10;;;461.00;2380.80;;;;;;5093516;28;20028;-74
2021/09/28 01:02:28;;;;;;;25.33;18.35;;;461.00;2380.80;;;;;;5093038;28;20024;-72
2021/09/28 01:04:55;;;;;;;25.50;17.40;;;461.00;2380.80;;;;;;5093461;28;20374;-72
2021/09/28 01:07:20;;;;;;;27.40;18.10;;;461.10;2380.80;;;;;;5093369;28;20052;-72
2021/09/28 01:09:46;;;;;;;26.00;17.35;;;461.10;2380.80;;;;;;5093115;28;20520;-75
2021/09/28 01:12:12;;;;;;;24.45;17.10;;;461.10;2380.80;;;;;;5092983;28;20031;-74
2021/09/28 01:14:38;;;;;;;24.25;17.08;;;461.20;2380.80;;;;;;5093201;28;20032;-73
2021/09/28 01:17:15;;;;;;;22.33;16.50;;;461.00;2380.80;;;;;;5093106;28;20044;-75
2021/09/28 01:19:41;;;;;;;23.48;16.55;;;461.10;2380.80;;;;;;5093360;28;20047;-74
2021/09/28 01:22:08;;;;;;;22.67;16.15;;;461.20;2380.80;;;;;;5093170;28;20020;-74
2021/09/28 01:24:34;;;;;;;21.73;15.20;;;461.30;2380.80;;;;;;5071810;28;20052;-72
2021/09/28 01:27:00;;;;;;;22.58;15.77;;;461.30;2380.80;;;;;;5076191;28;20043;-74
2021/09/28 01:29:26;;;;;;;24.08;16.17;;;461.30;2380.80;;;;;;5076503;28;20102;-75
2021/09/28 01:31:51;;;;;;;23.20;16.10;;;461.20;2380.80;;;;;;5076621;28;20024;-74
2021/09/28 01:34:19;;;;;;;22.10;15.93;;;461.30;2380.80;;;;;;5076625;28;20043;-74
2021/09/28 01:36:47;;;;;;;23.73;16.45;;;461.30;2380.80;;;;;;5076249;28;20028;-75
2021/09/28 01:39:13;;;;;;;24.25;17.55;;;461.10;2380.80;;;;;;5076447;28;20070;-74
2021/09/28 01:41:40;;;;;;;23.83;16.30;;;461.20;2380.80;;;;;;5076278;28;20017;-75
2021/09/28 01:44:06;;;;;;;23.75;16.98;;;461.30;2380.80;;;;;;5076071;28;20060;-74
2021/09/28 01:46:33;;;;;;;21.17;15.55;;;461.30;2380.80;;;;;;5075748;28;20056;-75
2021/09/28 01:48:58;;;;;;;24.27;16.75;;;461.30;2380.80;;;;;;5076161;28;20028;-75
2021/09/28 01:51:24;;;;;;;20.75;15.63;;;461.30;2380.80;;;;;;5076027;28;20025;-75
2021/09/28 01:53:50;;;;;;;23.27;16.80;;;461.30;2380.80;;;;;;5075920;28;20466;-74
2021/09/28 01:56:22;;;;;;;23.48;16.33;;;461.30;2380.80;;;;;;5075960;28;20025;-73
2021/09/28 01:58:49;;;;;;;23.33;16.35;;;461.30;2380.80;;;;;;5075974;28;20032;-76
2021/09/28 02:01:15;;;;;;;25.38;16.70;;;461.30;2380.80;;;;;;5075729;28;20032;-72
2021/09/28 02:03:41;;;;;;;24.50;17.27;;;461.30;2380.80;;;;;;5077347;28;20095;-77
2021/09/28 02:06:06;;;;;;;25.73;17.13;;;461.20;2380.80;;;;;;5076262;28;20020;-75
2021/09/28 02:08:32;;;;;;;26.67;17.23;;;461.20;2380.80;;;;;;5075959;28;20043;-75
2021/09/28 02:10:58;;;;;;;26.77;17.42;;;461.10;2380.80;;;;;;5075734;28;20490;-76
2021/09/28 02:13:24;;;;;;;25.77;17.25;;;461.10;2380.80;;;;;;5075601;28;20024;-74
2021/09/28 02:15:49;;;;;;;27.48;18.42;;;461.00;2380.80;;;;;;5075745;28;20020;-73
2021/09/28 02:18:16;;;;;;;26.02;17.98;;;460.90;2380.80;;;;;;5075625;28;20039;-74
2021/09/28 02:20:41;;;;;;;29.15;18.98;;;460.80;2380.80;;;;;;5075758;28;20039;-70
2021/09/28 02:23:07;;;;;;;29.75;19.33;;;460.80;2380.80;;;;;;5081705;28;20043;-69
2021/09/28 02:25:33;;;;;;;29.08;19.65;;;460.80;2380.80;;;;;;5095774;28;20032;-70
2021/09/28 02:27:59;;;;;;;28.83;18.55;;;436.10;2355.20;;;;;;5095084;28;20020;-72
2021/09/28 02:30:25;;;;;;;32.15;19.90;;;436.10;2355.20;;;;;;5095517;28;20028;-74
2021/09/28 02:32:50;;;;;;;30.88;19.92;;;436.00;2355.20;;;;;;5095485;28;20196;-75
2021/09/28 02:35:16;;;;;;;29.75;19.92;;;435.80;2355.20;;;;;;5095285;28;20046;-73
2021/09/28 02:37:42;;;;;;;31.35;19.30;;;435.80;2355.20;;;;;;5094854;28;20020;-75
2021/09/28 02:40:09;;;;;;;34.55;20.80;;;435.80;2355.20;;;;;;5095524;28;20028;-74
2021/09/28 02:42:35;;;;;;;33.42;20.55;;;435.80;2355.20;;;;;;5095238;28;20020;-74
2021/09/28 02:45:05;;;;;;;32.75;19.58;;;435.80;2355.20;;;;;;5095695;28;20415;-73
2021/09/28 02:47:31;;;;;;;33.13;20.30;;;435.70;2355.20;;;;;;5095296;28;20036;-75
2021/09/28 02:49:56;;;;;;;35.45;21.77;;;435.70;2355.20;;;;;;5095129;28;20383;-74
2021/09/28 02:52:22;;;;;;;36.55;22.23;;;435.60;2355.20;;;;;;5095262;28;20106;-74
2021/09/28 02:54:48;;;;;;;38.78;21.75;;;435.60;2355.20;;;;;;5094970;28;20482;-75
2021/09/28 02:57:14;;;;;;;39.67;23.13;;;435.60;2355.20;;;;;;5094866;28;20027;-75
2021/09/28 02:59:40;;;;;;;36.40;21.98;;;435.50;2355.20;;;;;;5094781;28;20024;-74
2021/09/28 03:02:06;;;;;;;37.80;22.40;;;435.50;2355.20;;;;;;5095033;28;20020;-75
2021/09/28 03:04:32;;;;;;;41.08;22.35;;;435.50;2355.20;;;;;;5094596;28;20504;-75
2021/09/28 03:06:57;;;;;;;35.50;21.55;;;435.50;2355.20;;;;;;5095074;28;20027;-75
2021/09/28 03:09:23;;;;;;;37.95;22.58;;;435.50;2355.20;;;;;;5094751;28;20028;-74
2021/09/28 03:11:49;;;;;;;40.10;22.67;;;435.50;2355.20;;;;;;5094399;28;20021;-75
2021/09/28 03:14:14;;;;;;;35.15;22.00;;;435.50;2355.20;;;;;;5094559;28;20028;-75
2021/09/28 03:16:40;;;;;;;40.38;22.80;;;435.60;2355.20;;;;;;5094729;28;20043;-73
2021/09/28 03:19:06;;;;;;;36.38;22.50;;;435.60;2355.20;;;;;;5094616;28;20028;-75
2021/09/28 03:21:31;;;;;;;40.25;22.65;;;435.50;2355.20;;;;;;5094657;28;20020;-75
2021/09/28 03:23:57;;;;;;;35.92;22.05;;;435.50;2355.20;;;;;;5094273;28;20042;-74
2021/09/28 03:26:23;;;;;;;39.53;23.20;;;435.50;2355.20;;;;;;5094751;28;20031;-72
2021/09/28 03:28:49;;;;;;;37.38;21.83;;;435.50;2355.20;;;;;;5075869;28;20128;-74
2021/09/28 03:31:15;;;;;;;37.60;22.27;;;435.50;2355.20;;;;;;5094667;28;20020;-74
2021/09/28 03:33:40;;;;;;;42.15;23.20;;;435.50;2355.20;;;;;;5094349;28;20028;-74
2021/09/28 03:36:06;;;;;;;39.28;22.83;;;435.50;2355.20;;;;;;5094300;28;20086;-75
2021/09/28 03:38:32;;;;;;;42.33;23.95;;;435.50;2355.20;;;;;;5094415;28;20107;-74
2021/09/28 03:40:58;;;;;;;41.28;23.40;;;435.50;2355.20;;;;;;5094365;28;20412;-75
2021/09/28 03:43:26;;;;;;;43.72;24.80;;;435.50;2355.20;;;;;;5094047;28;20098;-74
2021/09/28 03:45:52;;;;;;;43.55;24.60;;;435.40;2355.20;;;;;;5094276;28;20028;-75
2021/09/28 03:48:18;;;;;;;42.08;24.85;;;435.40;2355.20;;;;;;5093358;28;20359;-75
2021/09/28 03:50:43;;;;;;;44.20;25.02;;;435.50;2355.20;;;;;;5094213;28;20020;-74
2021/09/28 03:53:09;;;;;;;43.25;25.23;;;435.40;2355.20;;;;;;5093971;28;20039;-73
2021/09/28 03:55:35;;;;;;;44.17;25.33;;;435.50;2355.20;;;;;;5093925;28;20036;-72
2021/09/28 03:58:02;;;;;;;46.47;25.58;;;435.50;2355.20;;;;;;5093999;28;20032;-71
2021/09/28 04:00:30;;;;;;;45.10;25.15;;;435.50;2355.20;;;;;;5093948;28;20028;-71
2021/09/28 04:02:56;;;;;;;44.83;25.23;;;435.50;2355.20;;;;;;5093699;28;20355;-75
2021/09/28 04:05:22;;;;;;;45.83;25.65;;;435.50;2355.20;;;;;;5093799;28;20073;-75
2021/09/28 04:07:47;;;;;;;47.53;26.70;;;435.60;2355.20;;;;;;5093888;28;20024;-74
2021/09/28 04:10:13;;;;;;;46.20;26.33;;;435.60;2355.20;;;;;;5093939;28;20020;-74
2021/09/28 04:12:39;;;;;;;50.00;26.63;;;435.60;2355.20;;;;;;5093881;28;20028;-70
2021/09/28 04:15:07;;;;;;;47.42;26.50;;;435.60;2355.20;;;;;;5093536;28;20040;-67
2021/09/28 04:17:32;;;;;;;48.83;26.38;;;435.50;2355.20;;;;;;5093914;28;20035;-71
2021/09/28 04:19:58;;;;;;;48.33;26.85;;;435.50;2355.20;;;;;;5093818;28;20016;-69
2021/09/28 04:22:27;;;;;;;47.78;27.40;;;435.50;2355.20;;;;;;5093100;28;20021;-66
2021/09/28 04:24:54;;;;;;;48.20;26.65;;;435.50;2355.20;;;;;;5093495;28;20118;-75
2021/09/28 04:27:20;;;;;;;54.05;28.73;;;435.50;2355.20;;;;;;5093744;28;20012;-73
2021/09/28 04:29:46;;;;;;;49.63;27.90;;;435.50;2355.20;;;;;;5093571;28;20373;-71
2021/09/28 04:32:12;;;;;;;51.53;28.55;;;435.50;2355.20;;;;;;5093337;28;20389;-68
2021/09/28 04:34:38;;;;;;;55.95;30.60;;;435.60;2355.20;;;;;;5093214;28;20477;-74
2021/09/28 04:37:05;;;;;;;57.47;29.88;;;435.60;2355.20;;;;;;5093435;28;20109;-74
2021/09/28 04:39:31;;;;;;;58.35;31.70;;;435.60;2355.20;;;;;;5075408;28;20035;-74
2021/09/28 04:41:57;;;;;;;54.53;29.85;;;435.50;2355.20;;;;;;5093547;28;20024;-73
2021/09/28 04:44:23;;;;;;;53.25;29.77;;;435.50;2355.20;;;;;;5092949;28;20028;-70
2021/09/28 04:46:48;;;;;;;53.70;30.85;;;435.60;2355.20;;;;;;5074682;28;20097;-73
2021/09/28 04:49:14;;;;;;;53.40;30.02;;;435.70;2355.20;;;;;;5093396;28;20031;-74
2021/09/28 04:51:40;;;;;;;49.22;27.45;;;435.70;2355.20;;;;;;5093128;28;20028;-71
2021/09/28 04:54:06;;;;;;;50.25;27.88;;;435.80;2355.20;;;;;;5093050;28;20050;-68
2021/09/28 04:56:31;;;;;;;47.17;28.48;;;435.80;2355.20;;;;;;5093520;28;20024;-71
2021/09/28 04:58:57;;;;;;;49.40;28.13;;;435.80;2355.20;;;;;;5093471;28;20078;-72
2021/09/28 05:01:23;;;;;;;50.53;28.50;;;435.80;2355.20;;;;;;5096771;28;20066;-70
2021/09/28 05:03:48;;;;;;;44.60;26.48;;;435.80;2355.20;;;;;;5097323;28;20457;-70
2021/09/28 05:06:14;;;;;;;49.33;27.58;;;435.80;2355.20;;;;;;5097171;28;20020;-69
2021/09/28 05:08:40;;;;;;;44.00;26.40;;;435.70;2355.20;;;;;;5097266;28;20062;-68
2021/09/28 05:11:10;;;;;;;41.47;24.73;;;435.70;2355.20;;;;;;5096934;28;20020;-71
2021/09/28 05:13:35;;;;;;;41.25;24.52;;;435.80;2355.20;;;;;;5097125;28;20062;-71
2021/09/28 05:16:01;;;;;;;36.45;22.92;;;435.80;2355.20;;;;;;5096895;28;20032;-72
2021/09/28 05:18:27;;;;;;;39.25;24.73;;;435.80;2355.20;;;;;;5096837;28;20020;-67
2021/09/28 05:20:52;;;;;;;39.38;24.15;;;436.00;2355.20;;;;;;5097082;28;20131;-68
2021/09/28 05:23:18;;;;;;;37.40;23.33;;;436.10;2355.20;;;;;;5096837;28;20062;-70
2021/09/28 05:25:44;;;;;;;35.45;22.58;;;460.80;2380.80;;;;;;5096776;28;20396;-69
2021/09/28 05:28:10;;;;;;;34.15;22.05;;;460.90;2380.80;;;;;;5096577;28;20020;-69
2021/09/28 05:30:36;;;;;;;32.97;21.35;;;461.00;2380.80;;;;;;5096459;28;20027;-69
2021/09/28 05:33:02;;;;;;;30.77;20.25;;;461.10;2380.80;;;;;;5096747;28;20110;-70
2021/09/28 05:35:28;;;;;;;28.05;19.48;;;461.10;2380.80;;;;;;5096580;28;20040;-69
2021/09/28 05:37:54;;;;;;;28.38;19.48;;;461.20;2380.80;;;;;;5096811;28;20028;-70
2021/09/28 05:40:19;;;;;;;29.48;19.60;;;461.20;2380.80;;;;;;5096393;28;20536;-71
2021/09/28 05:42:45;;;;;;;26.65;17.65;;;461.30;2380.80;;;;;;5096379;28;20016;-70
2021/09/28 05:45:12;;;;;;;27.75;18.95;;;461.40;2380.80;;;;;;5095874;28;20085;-69
2021/09/28 05:47:37;;;;;;;28.05;18.98;;;461.30;2380.80;;;;;;5096397;28;20056;-69
2021/09/28 05:50:06;;;;;;;27.85;19.10;;;461.40;2380.80;;;;;;5096238;28;20032;-70
2021/09/28 05:52:32;;;;;;;25.08;17.88;;;461.40;2380.80;;;;;;5096094;28;20489;-66
2021/09/28 05:54:57;;;;;;;27.25;19.33;;;461.50;2380.80;;;;;;5096032;28;20047;-66
2021/09/28 05:57:24;;;;;;;28.50;19.65;;;461.50;2380.80;;;;;;5095838;28;20403;-68
2021/09/28 05:59:50;;;;;;;26.38;18.65;;;461.40;2380.80;;;;;;5077635;28;20030;-68
2021/09/28 06:02:18;;;;;;;26.92;18.35;;;461.50;2380.80;;;;;;5096029;28;20024;-69
2021/09/28 06:04:44;;;;;;;27.98;19.55;;;461.70;2380.80;;;;;;5095866;28;20024;-71
2021/09/28 06:07:10;;;;;;;27.20;19.33;;;461.70;2380.80;;;;;;5096176;28;20020;-69
2021/09/28 06:09:40;;;;;;;27.70;20.02;;;461.70;2380.80;;;;;;5095887;28;20087;-69
2021/09/28 06:12:07;;;;;;;27.20;19.38;;;486.40;2380.80;;;;;;5095173;28;20031;-68
2021/09/28 06:14:34;;;;;;;26.50;18.80;;;486.50;2380.80;;;;;;5095531;28;20089;-71
2021/09/28 06:17:00;;;;;;;26.45;17.77;;;486.60;2380.80;;;;;;5096042;28;20081;-71
2021/09/28 06:19:27;;;;;;;25.63;18.10;;;486.70;2380.80;;;;;;5095801;28;20028;-70
2021/09/28 06:21:53;;;;;;;26.42;18.88;;;486.80;2380.80;;;;;;5095844;28;20431;-71
2021/09/28 06:24:19;;;;;;;25.05;18.55;;;486.70;2380.80;;;;;;5095334;28;20455;-69
2021/09/28 06:26:46;;;;;;;24.95;18.65;;;486.70;2380.80;;;;;;5095647;28;20453;-69
2021/09/28 06:29:12;;;;;;;27.65;18.55;;;486.90;2380.80;;;;;;5095113;28;20478;-66
2021/09/28 06:31:38;;;;;;;26.35;18.73;;;486.90;2380.80;;;;;;5095270;28;20111;-68
2021/09/28 06:34:03;;;;;;;25.77;18.67;;;486.90;2380.80;;;;;;5095743;28;20028;-69
2021/09/28 06:36:29;;;;;;;26.52;18.90;;;486.90;2380.80;;;;;;5095832;28;20047;-69
2021/09/28 06:38:55;;;;;;;25.60;18.30;;;487.00;2380.80;;;;;;5095197;28;20441;-69
2021/09/28 06:41:21;;;;;;;24.40;18.27;;;487.00;2380.80;;;;;;5090025;28;20035;-69
2021/09/28 06:43:48;;;;;;;25.65;18.67;;;487.00;2380.80;;;;;;5095138;28;20382;-68
2021/09/28 06:46:14;;;;;;;27.30;18.63;;;487.10;2380.80;;;;;;5095250;28;20028;-69
2021/09/28 06:48:39;;;;;;;27.10;18.90;;;487.10;2380.80;;;;;;5095080;28;20554;-68
2021/09/28 06:51:05;;;;;;;24.42;18.45;;;487.00;2380.80;;;;;;5095060;28;20020;-69
2021/09/28 06:53:32;;;;;;;25.15;18.67;;;487.00;2380.80;;;;;;5095082;28;20549;-68
2021/09/28 06:55:58;;;;;;;24.08;18.35;;;487.10;2380.80;;;;;;5077215;28;20032;-67
2021/09/28 06:58:24;;;;;;;25.95;19.02;;;487.20;2380.80;;;;;;5094963;28;20043;-69
2021/09/28 07:00:50;;;;;;;25.70;18.70;;;487.20;2380.80;;;;;;5094643;28;20359;-68
2021/09/28 07:03:16;;;;;;;24.70;18.67;;;487.10;2380.80;;;;;;5095081;28;20093;-68
2021/09/28 07:05:42;;;;;;;27.92;19.20;;;487.20;2380.80;;;;;;5094741;28;20477;-69
2021/09/28 07:08:08;;;;;;;24.63;18.08;;;487.30;2380.80;;;;;;5094716;28;20024;-69
2021/09/28 07:10:34;;;;;;;26.90;18.95;;;487.30;2380.80;;;;;;5094805;28;20051;-69
2021/09/28 07:13:00;;;;;;;25.27;19.27;;;512.00;2380.80;;;;;;5094581;28;20028;-69
2021/09/28 07:15:25;;;;;;;27.67;18.73;;;512.10;2380.80;;;;;;5094263;28;20085;-69
2021/09/28 07:17:53;;;;;;;23.45;17.92;;;512.20;2380.80;;;;;;5094264;28;20031;-69
2021/09/28 07:20:21;;;;;;;26.63;18.92;;;512.30;2380.80;;;;;;5094212;28;20480;-68
2021/09/28 07:22:46;;;;;;;23.92;17.75;;;512.30;2380.80;;;;;;5093441;28;20046;-68
2021/09/28 07:25:12;;;;;;;24.20;18.35;;;512.30;2380.80;;;;;;5094366;28;20099;-67
2021/09/28 07:27:38;;;;;;;23.77;17.77;;;512.40;2380.80;;;;;;5094154;28;20036;-67
2021/09/28 07:30:06;;;;;;;27.08;19.70;;;512.40;2380.80;;;;;;5094252;28;20024;-67
2021/09/28 07:32:31;;;;;;;30.02;21.17;;;512.30;2380.80;;;;;;5093942;28;20077;-68
2021/09/28 07:34:58;;;;;;;26.80;19.92;;;512.30;2380.80;;;;;;5093354;28;20048;-68
2021/09/28 07:37:27;;;;;;;25.15;18.35;;;512.30;2380.80;;;;;;5093380;28;20016;-67
2021/09/28 07:39:55;;;;;;;25.38;18.48;;;512.30;2380.80;;;;;;5093100;28;20115;-69
2021/09/28 07:42:21;;;;;;;24.60;18.88;;;512.40;2380.80;;;;;;5093334;28;20020;-69
2021/09/28 07:44:47;;;;;;;23.85;18.23;;;512.50;2380.80;;;;;;5092484;28;20382;-68
2021/09/28 07:47:13;;;;;;;23.27;17.48;;;512.60;2380.80;;;;;;5092237;28;20020;-68
2021/09/28 07:49:42;;;;;;;25.23;18.80;;;512.80;2380.80;;;;;;5091438;28;20032;-70
2021/09/28 07:52:07;;;;;;;23.52;17.25;;;537.60;2406.40;;;;;;5092762;28;20485;-70
2021/09/28 07:54:35;;;;;;;21.17;17.13;;;537.70;2406.40;;;;;;5094288;28;20550;-70
2021/09/28 07:57:04;;;;;;;22.40;17.45;;;537.70;2406.40;;;;;;5093881;28;20028;-70
2021/09/28 07:59:30;;;;;;;23.45;17.58;;;512.80;2380.80;;;;;;5093999;28;20377;-69
2021/09/28 08:01:56;;;;;;;25.48;18.02;;;512.90;2380.80;;;;;;5093550;28;20103;-69
2021/09/28 08:04:22;;;;;;;24.30;17.90;;;512.90;2380.80;;;;;;5093856;28;20032;-69
2021/09/28 08:06:48;;;;;;;24.98;18.13;;;512.80;2380.80;;;;;;5093884;28;20107;-70
2021/09/28 08:09:15;;;;;;;26.27;18.77;;;512.70;2380.80;;;;;;5093886;28;20024;-69
2021/09/28 08:11:42;;;;;;;25.48;19.35;;;512.50;2380.80;;;;;;5093831;28;20021;-70
2021/09/28 08:14:09;;;;;;;26.40;19.02;;;512.50;2380.80;;;;;;5093621;28;20032;-69
2021/09/28 08:16:36;;;;;;;24.98;19.00;;;512.50;2380.80;;;;;;5093516;28;20506;-68
2021/09/28 08:19:03;;;;;;;22.75;18.02;;;512.70;2380.80;;;;;;5093617;28;20078;-69
2021/09/28 08:21:29;;;;;;;23.35;18.52;;;512.40;2380.80;;;;;;5093838;28;20024;-69
2021/09/28 08:23:55;;;;;;;26.10;18.52;;;512.40;2380.80;;;;;;5093351;28;20074;-69
2021/09/28 08:29:10;;;;;;;24.50;17.58;;;512.40;2380.80;;;;;;5093288;28;20020;-67
2021/09/28 08:31:38;;;;;;;21.30;16.63;;;512.50;2380.80;;;;;;5093383;28;20020;-69
2021/09/28 08:34:05;;;;;;;21.40;16.95;;;512.50;2380.80;;;;;;5094043;28;20028;-69
2021/09/28 08:36:31;;;;;;;23.42;16.83;;;512.50;2380.80;;;;;;5097081;28;20053;-69
2021/09/28 08:38:57;;;;;;;23.73;17.58;;;512.60;2380.80;;;;;;5097599;28;20020;-68
2021/09/28 08:41:23;;;;;;;20.77;16.17;;;512.60;2380.80;;;;;;5097308;28;20048;-67
2021/09/28 08:43:50;;;;;;;21.17;15.85;;;512.70;2380.80;;;;;;5097156;28;20063;-69
2021/09/28 08:46:20;;;;;;;18.60;14.73;;;512.60;2380.80;;;;;;5097578;28;20016;-70
2021/09/28 08:48:47;;;;;;;23.42;16.42;;;512.80;2380.80;;;;;;5097579;28;20028;-69
2021/09/28 08:51:14;;;;;;;21.00;16.10;;;512.80;2380.80;;;;;;5097655;28;20028;-69
2021/09/28 08:53:40;;;;;;;23.67;16.65;;;512.80;2380.80;;;;;;5097148;28;20024;-69
2021/09/28 08:56:09;;;;;;;21.23;16.23;;;512.80;2380.80;;;;;;5097304;28;20029;-67
2021/09/28 08:59:18;;;;;;;22.15;16.52;;;512.80;2380.80;;;;;;5097029;28;20065;-70
2021/09/28 09:01:58;;;;;;;22.52;16.35;;;512.80;2380.80;;;;;;5097351;28;20098;-67
2021/09/28 09:04:25;;;;;;;21.45;16.13;;;512.80;2380.80;;;;;;5079084;28;20032;-70
2021/09/28 09:06:54;;;;;;;20.42;16.00;;;512.60;2380.80;;;;;;5096208;28;20153;-69
2021/09/28 09:09:20;;;;;;;20.63;16.15;;;512.60;2380.80;;;;;;5096303;28;20024;-69
2021/09/28 09:11:48;;;;;;;24.90;17.13;;;512.70;2380.80;;;;;;5095688;28;20026;-70
2021/09/28 09:14:15;;;;;;;20.40;16.23;;;512.60;2380.80;;;;;;5096456;28;20032;-70
2021/09/28 09:16:42;;;;;;;20.38;16.55;;;512.60;2380.80;;;;;;5096820;28;20020;-69
2021/09/28 09:19:17;;;;;;;22.83;17.15;;;512.80;2380.80;;;;;;5096653;28;20032;-71
2021/09/28 09:21:48;;;;;;;21.25;16.45;;;537.60;2406.40;;;;;;5098389;28;20443;-69
2021/09/28 09:24:40;;;;;;;21.20;16.23;;;537.90;2406.40;;;;;;5107068;28;20051;-69
2021/09/28 09:27:05;;;;;;;17.13;14.27;;;563.30;2432.00;;;;;;5100205;28;20063;-69
2021/09/28 09:29:31;;;;;;;16.25;13.25;;;589.10;2432.00;;;;;;5089033;28;20494;-73
2021/09/28 09:31:57;;;;;;;15.55;13.25;;;614.80;2432.00;;;;;;5087203;28;20494;-69
2021/09/28 09:34:25;;;;;;;15.30;12.82;;;615.00;2432.00;;;;;;5105555;28;20035;-70
2021/09/28 09:36:59;;;;;;;15.43;12.88;;;615.30;2432.00;;;;;;5107153;28;20023;-68
2021/09/28 09:39:28;;;;;;;16.33;13.90;;;615.30;2432.00;;;;;;5107566;28;20023;-70
2021/09/28 09:42:06;;;;;;;19.13;15.55;;;615.10;2432.00;;;;;;5102835;28;20024;-72
2021/09/28 09:44:32;;;;;;;15.77;14.07;;;614.40;2432.00;;;;;;5086269;28;20020;-69
2021/09/28 09:47:01;;;;;;;15.95;14.02;;;589.30;2432.00;;;;;;5104504;28;20024;-70
2021/09/28 09:49:33;;;;;;;20.27;14.77;;;589.30;2432.00;;;;;;5105377;28;20020;-72
2021/09/28 09:52:13;;;;;;;18.77;15.48;;;589.20;2432.00;;;;;;5102346;28;20012;-66
2021/09/28 09:54:43;;;;;;;16.65;13.68;;;589.20;2432.00;;;;;;5102214;28;20105;-69
2021/09/28 09:57:11;;;;;;;18.17;14.18;;;589.20;2432.00;;;;;;5325725;22;20056;-65
2021/09/28 09:59:38;;;;;;;18.33;13.98;;;589.10;2432.00;;;;;;5094902;28;20063;-65
2021/09/28 10:02:06;;;;;;;16.20;13.57;;;589.40;2432.00;;;;;;5094575;28;20103;-65
2021/09/28 10:04:32;;;;;;;16.48;13.63;;;589.50;2432.00;;;;;;5094720;28;20123;-66
2021/09/28 10:07:01;;;;;;;14.88;11.82;;;614.40;2432.00;;;;;;5094807;28;20533;-65
2021/09/28 10:09:38;;;;;;;16.02;11.85;;;615.00;2432.00;;;;;;5092384;28;20035;-64
2021/09/28 10:12:06;;;;;;;13.80;12.18;;;640.50;2432.00;;;;;;5094225;28;20077;-64
2021/09/28 10:14:32;;;;;;;12.88;11.40;;;665.80;2432.00;;;;;;5094454;28;20060;-67
2021/09/28 10:17:00;;;;;;;14.57;11.50;;;666.00;2406.40;;;;;;5094440;28;20059;-64
2021/09/28 10:19:29;;;;;;;12.75;11.43;;;666.10;2355.20;;;;;;5091741;28;20469;-65
2021/09/28 10:21:59;;;;;;;13.75;11.60;;;666.00;2355.20;;;;;;5075935;28;20032;-66
2021/09/28 10:24:38;;;;;;;14.80;12.18;;;640.80;2355.20;;;;;;5073791;28;20020;-67
2021/09/28 10:27:07;;;;;;;15.88;12.02;;;640.70;2406.40;;;;;;5094009;28;20473;-66
2021/09/28 10:29:47;;;;;;;13.93;12.00;;;640.20;2432.00;;;;;;5075770;28;20031;-65
2021/09/28 10:32:25;;;;;;;16.02;12.38;;;640.30;2432.00;;;;;;5092848;28;20481;-66
2021/09/28 10:35:06;;;;;;;16.13;12.40;;;640.00;2432.00;;;;;;5092324;28;20047;-66
2021/09/28 10:37:49;;;;;;;13.25;11.35;;;640.20;2432.00;;;;;;5092308;28;20012;-65
2021/09/28 10:40:15;;;;;;;12.80;11.30;;;640.60;2406.40;;;;;;5085521;28;20028;-67
2021/09/28 10:42:50;;;;;;;13.27;11.55;;;640.40;2432.00;;;;;;5073033;28;20021;-66
2021/09/28 10:45:43;;;;;;;13.07;11.43;;;640.50;2432.00;;;;;;5084925;28;20016;-65
2021/09/28 10:48:30;;;;;;;13.10;11.00;;;640.20;2432.00;;;;;;5070230;28;20060;-65
2021/09/28 10:51:07;;;;;;;13.60;11.02;;;640.10;2432.00;;;;;;5084845;28;20677;-66
2021/09/28 10:53:35;;;;;;;13.40;11.10;;;666.00;2406.40;;;;;;5084685;28;20028;-67
2021/09/28 10:56:06;;;;;;;11.43;10.23;;;666.50;2329.60;;;;;;5084629;28;20062;-67
2021/09/28 10:59:02;;;;;;;12.35;10.55;;;716.90;2150.40;;;;;;5082886;28;20064;-67
2021/09/28 11:01:32;;;;;;;12.60;10.68;;;716.80;2150.40;;;;;;5084717;28;20016;-67
2021/09/28 11:04:01;;;;;;;10.90;9.75;;;742.70;2022.40;;;;;;5082018;28;20040;-67
2021/09/28 11:07:08;;;;;;;10.45;9.35;;;742.60;1996.80;;;;;;5072913;28;20368;-69
2021/09/28 11:09:46;;;;;;;13.35;10.73;;;742.90;1945.60;;;;;;5011512;28;20021;-65
2021/09/28 11:12:14;;;;;;;11.30;10.15;;;717.70;1945.60;;;;;;5009495;28;20026;-67
2021/09/28 11:14:40;;;;;;;11.93;10.20;;;717.50;1971.20;;;;;;4995008;28;20136;-66
2021/09/28 11:17:13;;;;;;;10.85;9.75;;;717.30;1996.80;;;;;;5011294;28;20603;-66
2021/09/28 11:19:39;;;;;;;13.88;9.52;;;717.40;1996.80;;;;;;5011223;28;20526;-66
2021/09/28 11:22:15;;;;;;;10.02;8.93;;;717.70;1971.20;;;;;;5011404;28;20217;-67
2021/09/28 11:24:42;;;;;;;9.57;8.55;;;743.20;1868.80;;;;;;5011179;28;20105;-67
2021/09/28 11:27:12;;;;;;;10.05;8.43;;;743.20;1843.20;;;;;;4992259;28;20081;-67
2021/09/28 11:29:40;;;;;;;10.68;8.60;;;743.00;1868.80;;;;;;5011115;28;20053;-66
2021/09/28 11:32:07;;;;;;;13.95;10.05;;;742.70;1868.80;;;;;;5010410;28;20029;-65
2021/09/28 11:34:37;;;;;;;10.35;9.20;;;717.50;1894.40;;;;;;5011335;28;20052;-65
2021/09/28 11:37:05;;;;;;;11.20;9.65;;;717.10;1945.60;;;;;;5012445;28;20438;-65
2021/09/28 11:39:36;;;;;;;13.68;10.07;;;717.10;1920.00;;;;;;5024793;28;20123;-67
2021/09/28 11:42:04;;;;;;;13.93;9.80;;;691.80;1971.20;;;;;;5056019;28;20020;-64
2021/09/28 11:44:46;;;;;;;12.40;9.60;;;692.10;1945.60;;;;;;5073911;28;20081;-65
2021/09/28 11:47:16;;;;;;;10.40;9.15;;;716.90;1971.20;;;;;;5078486;28;20035;-64
2021/09/28 11:49:50;;;;;;;12.93;10.23;;;716.90;1945.60;;;;;;5074229;28;20063;-65
2021/09/28 11:52:16;;;;;;;11.73;9.77;;;716.80;1971.20;;;;;;5069828;28;20066;-65
2021/09/28 11:54:44;;;;;;;9.80;8.63;;;717.60;1894.40;;;;;;5073694;28;20390;-64
2021/09/28 11:57:11;;;;;;;12.73;11.38;;;794.00;1715.20;;;;;;5073254;28;20040;-65
2021/09/28 11:59:36;;;;;;;11.85;10.15;;;844.80;1587.20;;;;;;5073581;28;20035;-65
2021/09/28 12:02:03;;;;;;;9.45;8.50;;;871.00;1382.40;;;;;;5073463;28;20021;-65
2021/09/28 12:09:29;;;;;;;;;;;896.20;1280.00;;;;;;5073635;28;20051;-66
2021/09/28 12:12:13;;;;;;;9.95;8.95;;;896.50;1228.80;;;;;;5073640;28;20353;-66